FL51 weather

Wptv Heliport
West Palm Beach, Florida, United States

Public forecast

Using degrees Fahrenheit for public forecast. Weather courtesy of forecast.io.

METAR (pilot weather report)

Closest report is Palm Beach International Airport, 2.5 nm (4.6 km) SW. Retrieved 2019/06/25 07:53 UTC (11 minutes ago):

KPBI 250753Z 22003KT 10SM CLR 28/24 A3000 RMK AO2 SLP160 T02780239 $

TAF (pilot weather forecast)

Closest forecast is Palm Beach International Airport, 2.5 nm (4.6 km) SW. Retrieved 2019/06/25 06:22 UTC (2 hours ago):

TAF KPBI 250520Z 2506/2606 VRB03KT P6SM SKC FM251600 10008KT P6SM FEW030 SCT060 FM251900 10010KT P6SM SCT035 BKN060 FM260100 VRB03KT P6SM SCT035 SCT050